createdAt,value
2022-12-07T00:01:17.457Z,11.07
2022-12-07T00:03:46.416Z,11.50
2022-12-07T00:06:15.014Z,11.00
2022-12-07T00:08:41.849Z,10.57
2022-12-07T00:11:20.106Z,10.40
2022-12-07T00:13:48.244Z,8.75
2022-12-07T00:16:21.564Z,7.30
2022-12-07T00:18:48.924Z,6.28
2022-12-07T00:21:27.862Z,5.15
2022-12-07T00:23:56.610Z,4.93
2022-12-07T00:26:31.344Z,4.43
2022-12-07T00:29:02.210Z,6.15
2022-12-07T00:31:32.308Z,5.30
2022-12-07T00:33:59.219Z,6.53
2022-12-07T00:36:27.662Z,5.40
2022-12-07T00:39:00.196Z,5.15
2022-12-07T00:41:28.569Z,4.13
2022-12-07T00:43:55.541Z,4.60
2022-12-07T00:46:22.703Z,6.57
2022-12-07T00:48:50.644Z,6.73
2022-12-07T00:51:19.622Z,5.15
2022-12-07T00:53:47.001Z,3.75
2022-12-07T00:56:19.166Z,3.38
2022-12-07T00:58:51.634Z,3.53
2022-12-07T01:01:18.497Z,2.93
2022-12-07T01:03:45.783Z,3.05
2022-12-07T01:06:16.486Z,3.38
2022-12-07T01:08:43.835Z,3.88
2022-12-07T01:11:15.599Z,4.30
2022-12-07T01:13:42.760Z,5.93
2022-12-07T01:16:13.280Z,8.43
2022-12-07T01:18:40.728Z,8.40
2022-12-07T01:21:12.079Z,9.10
2022-12-07T01:23:39.537Z,9.30
2022-12-07T01:26:10.660Z,9.13
2022-12-07T01:28:37.721Z,8.63
2022-12-07T01:31:13.716Z,8.23
2022-12-07T01:33:40.666Z,8.20
2022-12-07T01:36:09.612Z,9.10
2022-12-07T01:38:36.433Z,8.87
2022-12-07T01:41:03.578Z,9.15
2022-12-07T01:43:32.173Z,9.80
2022-12-07T01:45:59.538Z,9.63
2022-12-07T01:48:34.790Z,10.25
2022-12-07T01:51:05.927Z,8.50
2022-12-07T01:53:37.320Z,9.73
2022-12-07T01:56:04.599Z,9.88
2022-12-07T01:58:31.768Z,9.23
2022-12-07T02:00:58.972Z,9.82
2022-12-07T02:03:39.159Z,9.10
2022-12-07T02:06:07.665Z,6.88
2022-12-07T02:08:35.197Z,5.97
2022-12-07T02:11:04.028Z,6.70
2022-12-07T02:13:33.962Z,6.07
2022-12-07T02:16:26.480Z,6.90
2022-12-07T02:19:09.246Z,7.43
2022-12-07T02:21:44.734Z,6.50
2022-12-07T02:24:26.520Z,7.25
2022-12-07T02:27:07.745Z,7.30
2022-12-07T02:29:40.660Z,7.37
2022-12-07T02:32:24.019Z,6.43
2022-12-07T02:34:57.315Z,6.28
2022-12-07T02:37:49.777Z,6.90
2022-12-07T02:40:20.364Z,4.97
2022-12-07T02:42:56.404Z,4.27
2022-12-07T02:45:25.732Z,4.07
2022-12-07T02:47:57.183Z,5.15
2022-12-07T02:50:24.347Z,4.60
2022-12-07T02:52:51.295Z,4.22
2022-12-07T02:55:24.520Z,4.27
2022-12-07T02:58:22.014Z,4.60
2022-12-07T03:01:17.606Z,4.97
2022-12-07T03:03:52.050Z,6.10
2022-12-07T03:06:37.398Z,8.93
2022-12-07T03:09:33.793Z,7.93
2022-12-07T03:12:15.644Z,6.93
2022-12-07T03:15:02.076Z,7.43
2022-12-07T03:17:34.135Z,5.35
2022-12-07T03:20:04.999Z,5.03
2022-12-07T03:22:36.149Z,4.00
2022-12-07T03:25:09.479Z,4.97
2022-12-07T03:27:54.263Z,4.45
2022-12-07T03:30:24.457Z,3.67
2022-12-07T03:33:06.378Z,6.40
2022-12-07T03:35:41.268Z,9.43
2022-12-07T03:38:22.907Z,8.15
2022-12-07T03:40:59.504Z,4.68
2022-12-07T03:43:26.556Z,4.68
2022-12-07T03:46:17.428Z,4.88
2022-12-07T03:48:55.889Z,5.57
2022-12-07T03:51:30.258Z,5.50
2022-12-07T03:54:09.289Z,4.50
2022-12-07T03:56:36.805Z,5.80
2022-12-07T03:59:03.796Z,5.70
2022-12-07T04:01:30.812Z,5.67
2022-12-07T04:03:57.668Z,3.95
2022-12-07T04:06:24.589Z,5.43
2022-12-07T04:08:51.370Z,5.60
2022-12-07T04:11:18.249Z,7.68
2022-12-07T04:13:45.052Z,7.20
2022-12-07T04:16:11.914Z,7.05
2022-12-07T04:18:38.759Z,6.40
2022-12-07T04:21:05.521Z,6.53
2022-12-07T04:23:32.327Z,5.70
2022-12-07T04:25:59.190Z,4.60
2022-12-07T04:28:26.164Z,4.10
2022-12-07T04:30:52.987Z,4.47
2022-12-07T04:33:19.813Z,3.72
2022-12-07T04:35:46.771Z,4.15
2022-12-07T04:38:13.694Z,5.10
2022-12-07T04:40:40.562Z,5.60
2022-12-07T04:43:07.380Z,5.90
2022-12-07T04:45:34.287Z,6.90
2022-12-07T04:48:01.104Z,6.07
2022-12-07T04:50:28.105Z,6.87
2022-12-07T04:55:21.930Z,6.30
2022-12-07T04:57:48.731Z,6.32
2022-12-07T05:00:15.810Z,6.50
2022-12-07T05:02:42.626Z,7.23
2022-12-07T05:05:09.597Z,6.70
2022-12-07T05:07:36.408Z,6.82
2022-12-07T05:10:03.539Z,7.40
2022-12-07T05:12:30.636Z,7.55
2022-12-07T05:14:57.403Z,7.63
2022-12-07T05:17:24.472Z,7.47
2022-12-07T05:19:51.238Z,7.57
2022-12-07T05:22:18.144Z,7.45
2022-12-07T05:24:45.070Z,8.38
2022-12-07T05:27:11.958Z,8.60
2022-12-07T05:29:38.836Z,8.98
2022-12-07T05:32:05.987Z,9.30
2022-12-07T05:34:32.938Z,10.63
2022-12-07T05:36:59.873Z,11.43
2022-12-07T05:39:26.726Z,11.63
2022-12-07T05:41:53.593Z,12.98
2022-12-07T05:44:20.603Z,14.55
2022-12-07T05:49:14.403Z,15.50
2022-12-07T05:51:42.215Z,13.00
2022-12-07T05:54:09.063Z,12.65
2022-12-07T05:56:36.009Z,13.15
2022-12-07T05:59:02.932Z,12.15
2022-12-07T06:01:29.794Z,10.05
2022-12-07T06:03:56.722Z,12.87
2022-12-07T06:06:23.727Z,15.68
2022-12-07T06:08:50.837Z,16.83
2022-12-07T06:11:17.617Z,15.60
2022-12-07T06:13:47.357Z,16.08
2022-12-07T06:16:14.625Z,16.80
2022-12-07T06:18:42.864Z,17.48
2022-12-07T06:21:09.812Z,18.35
2022-12-07T06:23:36.637Z,17.10
2022-12-07T06:26:03.529Z,20.20
2022-12-07T06:28:30.398Z,23.57
2022-12-07T06:31:02.077Z,24.58
2022-12-07T06:33:30.048Z,22.80
2022-12-07T06:35:57.058Z,21.33
2022-12-07T06:38:23.953Z,22.25
2022-12-07T06:40:50.759Z,21.73
2022-12-07T06:43:17.640Z,22.52
2022-12-07T06:45:44.512Z,20.27
2022-12-07T06:48:11.465Z,19.30
2022-12-07T06:50:38.847Z,19.42
2022-12-07T06:53:05.715Z,19.10
2022-12-07T06:55:32.534Z,19.42
2022-12-07T06:57:59.400Z,21.00
2022-12-07T07:00:26.419Z,20.13
2022-12-07T07:02:53.468Z,20.45
2022-12-07T07:05:20.305Z,19.93
2022-12-07T07:08:20.286Z,18.67
2022-12-07T07:10:33.979Z,18.90
2022-12-07T07:13:00.967Z,19.33
2022-12-07T07:15:27.962Z,19.70
2022-12-07T07:17:54.853Z,17.80
2022-12-07T07:20:21.921Z,19.75
2022-12-07T07:22:49.594Z,18.90
2022-12-07T07:25:16.995Z,18.77
2022-12-07T07:27:43.924Z,18.98
2022-12-07T07:30:11.239Z,18.10
2022-12-07T07:32:38.014Z,19.25
2022-12-07T07:35:05.245Z,19.75
2022-12-07T07:37:32.088Z,18.90
2022-12-07T07:39:59.092Z,18.83
2022-12-07T07:42:26.100Z,19.03
2022-12-07T07:44:52.963Z,19.17
2022-12-07T07:47:19.738Z,18.40
2022-12-07T07:49:48.358Z,20.15
2022-12-07T07:52:15.338Z,18.88
2022-12-07T07:54:42.231Z,18.43
2022-12-07T07:57:09.124Z,19.58
2022-12-07T07:59:36.039Z,19.75
2022-12-07T08:02:02.951Z,19.08
2022-12-07T08:04:29.916Z,20.02
2022-12-07T08:06:58.020Z,20.70
2022-12-07T08:09:24.927Z,21.15
2022-12-07T08:11:51.776Z,22.30
2022-12-07T08:14:18.784Z,22.52
2022-12-07T08:16:45.721Z,22.27
2022-12-07T08:19:12.494Z,20.43
2022-12-07T08:21:39.433Z,19.55
2022-12-07T08:24:06.636Z,16.90
2022-12-07T08:26:33.502Z,18.98
2022-12-07T08:29:00.315Z,19.73
2022-12-07T08:31:27.397Z,19.90
2022-12-07T08:33:54.640Z,19.13
2022-12-07T08:36:21.707Z,15.55
2022-12-07T08:39:22.732Z,15.68
2022-12-07T08:41:35.521Z,14.63
2022-12-07T08:44:02.398Z,13.47
2022-12-07T08:46:40.651Z,12.65
2022-12-07T08:49:12.760Z,13.27
2022-12-07T08:51:40.554Z,13.35
2022-12-07T08:54:10.567Z,11.20
2022-12-07T08:56:37.547Z,10.20
2022-12-07T08:59:05.580Z,10.10
2022-12-07T09:01:32.671Z,10.90
2022-12-07T09:03:59.621Z,8.90
2022-12-07T09:06:27.156Z,9.32
2022-12-07T09:08:58.086Z,9.60
2022-12-07T09:11:28.664Z,8.38
2022-12-07T09:13:56.374Z,9.63
2022-12-07T09:16:23.631Z,8.60
2022-12-07T09:18:50.559Z,8.43
2022-12-07T09:21:17.403Z,8.90
2022-12-07T09:23:44.327Z,9.00
2022-12-07T09:26:11.450Z,8.95
2022-12-07T09:28:38.830Z,8.30
2022-12-07T09:31:23.935Z,9.10
2022-12-07T09:34:02.026Z,7.80
2022-12-07T09:36:29.835Z,9.10
2022-12-07T09:38:57.261Z,7.53
2022-12-07T09:41:26.428Z,8.10
2022-12-07T09:43:59.455Z,7.38
2022-12-07T09:46:26.699Z,7.87
2022-12-07T09:48:53.823Z,7.40
2022-12-07T09:51:25.122Z,7.68
2022-12-07T09:53:54.409Z,12.85
2022-12-07T09:56:23.069Z,72.35
2022-12-07T09:58:50.942Z,80.90
2022-12-07T10:01:20.405Z,89.75
2022-12-07T10:04:03.561Z,34.70
2022-12-07T10:06:30.551Z,32.85
2022-12-07T10:08:57.284Z,9.18
2022-12-07T10:11:24.166Z,8.50
2022-12-07T10:13:54.456Z,8.50
2022-12-07T10:16:33.935Z,8.40
2022-12-07T10:19:20.278Z,8.73
2022-12-07T10:22:10.645Z,9.32
2022-12-07T10:24:38.027Z,9.70
2022-12-07T10:27:05.165Z,10.23
2022-12-07T10:29:38.953Z,11.38
2022-12-07T10:32:27.283Z,10.63
2022-12-07T10:35:22.240Z,10.45
2022-12-07T10:37:50.684Z,18.60
2022-12-07T10:40:33.454Z,11.18
2022-12-07T10:43:07.032Z,11.63
2022-12-07T10:45:38.793Z,10.77
2022-12-07T10:48:30.317Z,12.00
2022-12-07T10:51:20.446Z,12.20
2022-12-07T10:54:02.011Z,12.48
2022-12-07T10:56:41.028Z,13.02
2022-12-07T10:59:26.398Z,12.27
2022-12-07T11:02:20.562Z,16.15
2022-12-07T11:05:10.768Z,18.40
2022-12-07T11:07:50.936Z,13.55
2022-12-07T11:10:55.960Z,14.73
2022-12-07T11:13:40.724Z,14.68
2022-12-07T11:16:22.500Z,14.68
2022-12-07T11:19:04.421Z,13.87
2022-12-07T11:21:43.658Z,33.40
2022-12-07T11:24:19.950Z,22.88
2022-12-07T11:27:08.194Z,19.75
2022-12-07T11:29:40.973Z,13.75
2022-12-07T11:32:46.898Z,14.00
2022-12-07T11:36:07.688Z,13.85
2022-12-07T11:38:46.688Z,14.05
2022-12-07T11:41:14.465Z,14.52
2022-12-07T11:43:53.309Z,17.40
2022-12-07T11:46:23.899Z,23.47
2022-12-07T11:49:05.659Z,17.40
2022-12-07T11:51:38.640Z,18.73
2022-12-07T11:54:20.826Z,20.98
2022-12-07T11:56:50.743Z,55.95
2022-12-07T11:59:25.100Z,46.03
2022-12-07T12:01:59.670Z,20.98
2022-12-07T12:04:56.874Z,44.42
2022-12-07T12:10:31.818Z,13.30
2022-12-07T12:15:57.299Z,14.82
2022-12-07T12:18:43.020Z,27.17
2022-12-07T12:21:19.869Z,16.60
2022-12-07T12:23:51.269Z,16.20
2022-12-07T12:26:39.082Z,15.23
2022-12-07T12:29:20.240Z,18.70
2022-12-07T12:32:05.409Z,16.25
2022-12-07T12:34:59.134Z,15.52
2022-12-07T12:37:34.897Z,22.30
2022-12-07T12:40:17.053Z,22.57
2022-12-07T12:42:48.419Z,39.80
2022-12-07T12:45:33.199Z,19.67
2022-12-07T12:48:03.832Z,20.05
2022-12-07T12:50:36.108Z,26.65
2022-12-07T12:53:25.242Z,27.33
2022-12-07T12:56:29.912Z,26.23
2022-12-07T12:59:32.043Z,21.83
2022-12-07T13:02:18.077Z,14.13
2022-12-07T13:05:09.280Z,13.90
2022-12-07T13:07:48.227Z,16.40
2022-12-07T13:10:27.263Z,14.43
2022-12-07T13:13:12.466Z,15.98
2022-12-07T13:15:54.173Z,16.58
2022-12-07T13:18:29.771Z,16.50
2022-12-07T13:21:08.489Z,16.20
2022-12-07T13:23:47.495Z,17.48
2022-12-07T13:26:32.674Z,21.17
2022-12-07T13:29:11.497Z,19.20
2022-12-07T13:31:50.130Z,21.35
2022-12-07T13:34:36.119Z,19.93
2022-12-07T13:37:05.810Z,19.38
2022-12-07T13:39:47.528Z,18.38
2022-12-07T13:42:29.282Z,26.15
2022-12-07T13:44:57.884Z,32.88
2022-12-07T13:47:30.592Z,19.77
2022-12-07T13:49:58.344Z,17.95
2022-12-07T13:52:30.706Z,19.05
2022-12-07T13:55:00.721Z,45.35
2022-12-07T13:57:30.313Z,48.35
2022-12-07T13:59:57.699Z,24.47
2022-12-07T14:02:34.384Z,26.23
2022-12-07T14:05:13.707Z,21.70
2022-12-07T14:07:59.478Z,31.00
2022-12-07T14:10:34.422Z,16.92
2022-12-07T14:13:21.941Z,16.67
2022-12-07T14:15:52.481Z,15.90
2022-12-07T14:18:29.163Z,12.85
2022-12-07T14:21:11.260Z,12.93
2022-12-07T14:23:40.336Z,12.18
2022-12-07T14:26:16.428Z,11.63
2022-12-07T14:28:44.714Z,13.25
2022-12-07T14:31:26.150Z,13.40
2022-12-07T14:34:00.796Z,14.13
2022-12-07T14:36:27.658Z,14.85
2022-12-07T14:38:54.445Z,13.83
2022-12-07T14:41:23.841Z,15.35
2022-12-07T14:44:21.414Z,14.93
2022-12-07T14:46:38.101Z,13.30
2022-12-07T14:54:39.749Z,14.25
2022-12-07T14:57:09.165Z,14.23
2022-12-07T14:59:39.221Z,15.43
2022-12-07T15:02:12.324Z,17.35
2022-12-07T15:04:39.348Z,19.50
2022-12-07T15:07:10.586Z,17.05
2022-12-07T15:09:37.540Z,15.85
2022-12-07T15:12:04.641Z,14.48
2022-12-07T15:14:31.587Z,14.00
2022-12-07T15:17:24.688Z,14.93
2022-12-07T15:19:45.351Z,16.65
2022-12-07T15:22:12.165Z,17.83
2022-12-07T15:24:39.442Z,14.10
2022-12-07T15:27:06.856Z,17.58
2022-12-07T15:29:33.842Z,18.73
2022-12-07T15:32:00.726Z,21.55
2022-12-07T15:34:30.082Z,20.45
2022-12-07T15:37:00.413Z,16.75
2022-12-07T15:39:27.181Z,21.08
2022-12-07T15:41:54.100Z,23.63
2022-12-07T15:44:21.014Z,15.15
2022-12-07T15:46:48.047Z,14.88
2022-12-07T15:49:18.026Z,17.02
2022-12-07T15:51:45.771Z,18.20
2022-12-07T15:54:31.740Z,16.83
2022-12-07T15:56:58.620Z,18.70
2022-12-07T15:59:27.802Z,15.50
2022-12-07T16:01:54.769Z,14.80
2022-12-07T16:04:21.955Z,16.60
2022-12-07T16:06:48.873Z,14.20
2022-12-07T16:09:15.688Z,13.48
2022-12-07T16:11:42.526Z,13.80
2022-12-07T16:14:09.488Z,14.27
2022-12-07T16:16:36.404Z,15.88
2022-12-07T16:19:03.360Z,15.97
2022-12-07T16:21:30.317Z,14.35
2022-12-07T16:23:59.247Z,15.90
2022-12-07T16:26:26.235Z,15.20
2022-12-07T16:28:54.139Z,16.38
2022-12-07T16:31:23.697Z,15.33
2022-12-07T16:33:51.693Z,15.75
2022-12-07T16:36:39.977Z,17.45
2022-12-07T16:39:06.914Z,16.52
2022-12-07T16:41:33.852Z,15.20
2022-12-07T16:44:06.406Z,15.63
2022-12-07T16:46:38.035Z,15.98
2022-12-07T16:49:05.856Z,15.43
2022-12-07T16:51:33.174Z,14.82
2022-12-07T16:54:00.054Z,14.77
2022-12-07T16:56:27.253Z,12.90
2022-12-07T16:58:54.208Z,15.38
2022-12-07T17:01:22.776Z,14.07
2022-12-07T17:03:50.418Z,14.90
2022-12-07T17:06:20.297Z,13.48
2022-12-07T17:08:48.354Z,14.70
2022-12-07T17:11:20.980Z,14.05
2022-12-07T17:13:48.116Z,13.80
2022-12-07T17:16:15.054Z,14.23
2022-12-07T17:18:42.022Z,15.18
2022-12-07T17:21:10.392Z,14.00
2022-12-07T17:23:38.002Z,14.02
2022-12-07T17:26:10.307Z,13.82
2022-12-07T17:28:37.555Z,13.90
2022-12-07T17:31:09.495Z,15.52
2022-12-07T17:33:37.104Z,14.90
2022-12-07T17:36:15.083Z,13.85
2022-12-07T17:38:42.742Z,14.25
2022-12-07T17:41:14.621Z,12.27
2022-12-07T17:43:41.848Z,14.63
2022-12-07T17:46:09.885Z,13.73
2022-12-07T17:48:37.851Z,13.70
2022-12-07T17:51:05.058Z,13.20
2022-12-07T17:53:32.131Z,12.60
2022-12-07T17:58:45.975Z,14.17
2022-12-07T18:01:12.989Z,12.73
2022-12-07T18:03:40.038Z,10.93
2022-12-07T18:06:07.340Z,12.13
2022-12-07T18:08:37.517Z,12.40
2022-12-07T18:11:05.396Z,12.63
2022-12-07T18:13:33.766Z,11.35
2022-12-07T18:16:00.837Z,12.70
2022-12-07T18:18:27.732Z,16.05
2022-12-07T18:20:54.805Z,12.80
2022-12-07T18:23:21.884Z,13.87
2022-12-07T18:25:50.050Z,14.25
2022-12-07T18:28:18.079Z,12.98
2022-12-07T18:31:13.832Z,14.95
2022-12-07T18:33:31.811Z,12.20
2022-12-07T18:36:00.679Z,12.10
2022-12-07T18:38:28.761Z,13.07
2022-12-07T18:40:55.923Z,12.85
2022-12-07T18:43:23.575Z,13.80
2022-12-07T18:45:56.021Z,14.07
2022-12-07T18:48:24.174Z,12.53
2022-12-07T18:51:02.791Z,13.38
2022-12-07T18:53:30.052Z,11.68
2022-12-07T18:56:08.710Z,13.57
2022-12-07T18:58:35.718Z,15.65
2022-12-07T19:01:02.864Z,14.43
2022-12-07T19:03:33.274Z,12.52
2022-12-07T19:06:06.876Z,15.30
2022-12-07T19:08:33.833Z,15.07
2022-12-07T19:11:00.675Z,14.80
2022-12-07T19:13:27.902Z,15.43
2022-12-07T19:15:54.980Z,15.70
2022-12-07T19:18:22.121Z,13.40
2022-12-07T19:20:49.038Z,14.07
2022-12-07T19:23:16.049Z,13.18
2022-12-07T19:25:42.970Z,13.93
2022-12-07T19:28:10.007Z,14.05
2022-12-07T19:30:38.130Z,14.73
2022-12-07T19:33:04.962Z,14.13
2022-12-07T19:35:31.807Z,14.75
2022-12-07T19:37:58.632Z,14.80
2022-12-07T19:40:25.553Z,15.13
2022-12-07T19:42:52.503Z,16.25
2022-12-07T19:45:19.326Z,16.15
2022-12-07T19:47:46.271Z,14.95
2022-12-07T19:50:13.097Z,15.30
2022-12-07T19:52:40.000Z,13.60
2022-12-07T19:55:07.239Z,13.68
2022-12-07T19:57:34.192Z,14.02
2022-12-07T20:00:01.291Z,12.82
2022-12-07T20:02:28.286Z,13.93
2022-12-07T20:04:55.138Z,16.40
2022-12-07T20:07:22.186Z,15.27
2022-12-07T20:09:49.029Z,14.13
2022-12-07T20:12:15.893Z,14.23
2022-12-07T20:14:42.852Z,13.40
2022-12-07T20:17:09.858Z,12.73
2022-12-07T20:19:37.934Z,12.80
2022-12-07T20:22:05.522Z,11.25
2022-12-07T20:24:34.326Z,9.13
2022-12-07T20:27:01.629Z,13.03
2022-12-07T20:29:28.526Z,12.75
2022-12-07T20:31:56.765Z,12.63
2022-12-07T20:34:23.944Z,12.43
2022-12-07T20:36:50.778Z,11.70
2022-12-07T20:39:18.060Z,12.70
2022-12-07T20:41:44.916Z,11.43
2022-12-07T20:44:13.343Z,13.82
2022-12-07T20:46:40.632Z,11.18
2022-12-07T20:49:08.195Z,12.68
2022-12-07T20:51:35.056Z,12.03
2022-12-07T20:54:02.043Z,12.20
2022-12-07T20:56:31.459Z,10.90
2022-12-07T20:59:00.841Z,10.98
2022-12-07T21:01:28.224Z,10.45
2022-12-07T21:03:56.712Z,9.43
2022-12-07T21:06:24.376Z,10.43
2022-12-07T21:08:53.743Z,11.93
2022-12-07T21:11:22.129Z,13.55
2022-12-07T21:13:49.084Z,11.75
2022-12-07T21:16:21.200Z,10.60
2022-12-07T21:18:48.618Z,11.98
2022-12-07T21:21:17.595Z,14.00
2022-12-07T21:23:44.414Z,13.52
2022-12-07T21:26:13.676Z,12.18
2022-12-07T21:28:40.908Z,11.40
2022-12-07T21:31:15.567Z,13.82
2022-12-07T21:33:43.886Z,11.90
2022-12-07T21:36:13.258Z,12.10
2022-12-07T21:38:40.062Z,14.45
2022-12-07T21:41:24.575Z,14.90
2022-12-07T21:43:51.520Z,16.65
2022-12-07T21:46:19.729Z,19.50
2022-12-07T21:48:51.007Z,19.48
2022-12-07T21:51:18.590Z,17.98
2022-12-07T21:53:45.377Z,17.37
2022-12-07T21:56:16.194Z,20.98
2022-12-07T21:58:43.706Z,19.30
2022-12-07T22:01:19.309Z,17.13
2022-12-07T22:03:47.086Z,14.75
2022-12-07T22:06:19.240Z,12.67
2022-12-07T22:08:46.830Z,12.27
2022-12-07T22:11:14.469Z,10.90
2022-12-07T22:13:42.824Z,9.80
2022-12-07T22:16:09.876Z,13.80
2022-12-07T22:18:36.798Z,15.17
2022-12-07T22:21:03.772Z,13.77
2022-12-07T22:23:32.690Z,12.43
2022-12-07T22:25:59.610Z,11.35
2022-12-07T22:28:26.472Z,13.15
2022-12-07T22:30:53.459Z,11.50
2022-12-07T22:33:20.345Z,11.55
2022-12-07T22:35:53.233Z,11.45
2022-12-07T22:38:20.072Z,12.40
2022-12-07T22:40:46.994Z,13.75
2022-12-07T22:43:13.863Z,11.03
2022-12-07T22:45:40.938Z,11.60
2022-12-07T22:48:09.008Z,10.30
2022-12-07T22:50:35.925Z,10.77
2022-12-07T22:53:02.897Z,12.98
2022-12-07T22:55:29.700Z,13.97
2022-12-07T22:57:56.686Z,15.48
2022-12-07T23:00:23.545Z,13.68
2022-12-07T23:02:50.415Z,12.50
2022-12-07T23:05:17.277Z,14.77
2022-12-07T23:07:44.186Z,16.53
2022-12-07T23:10:11.646Z,14.57
2022-12-07T23:12:38.469Z,12.60
2022-12-07T23:15:07.000Z,11.43
2022-12-07T23:17:36.331Z,12.50
2022-12-07T23:20:04.415Z,10.67
2022-12-07T23:22:31.350Z,10.05
2022-12-07T23:24:58.173Z,9.15
2022-12-07T23:27:25.201Z,9.15
2022-12-07T23:29:52.171Z,14.57
2022-12-07T23:32:19.066Z,17.40
2022-12-07T23:34:46.057Z,17.40
2022-12-07T23:37:12.917Z,14.73
2022-12-07T23:39:39.943Z,12.65
2022-12-07T23:42:06.811Z,15.88
2022-12-07T23:44:33.609Z,17.43
2022-12-07T23:47:00.457Z,19.08
2022-12-07T23:49:27.335Z,15.60
2022-12-07T23:51:54.303Z,12.63
2022-12-07T23:54:21.147Z,11.00
2022-12-07T23:56:48.043Z,9.17
2022-12-07T23:59:14.937Z,10.95
